Aviation Digital Data Service (ADDS)

Output produced by METARs form (1357 UTC 22 April 2019)
found at http://www.aviationweather.gov/metar/data/
 
Forecast for: EGAA (BELFAST/ALDERGRO, GB)
Text: TAF EGAA 221057Z 2212/2312 13011KT CAVOK
Forecast period: 1200 UTC 22 April 2019 to 1200 UTC 23 April 2019
Forecast type: FROM: standard forecast or significant change
Winds: from the SE (130 degrees) at 13 MPH (11 knots; 5.7 m/s)
Visibility: 6 or more miles 10+ km)
Ceiling: unknown
Clouds: missing
Weather: NSW  (no significant weather)